createdAt,value
2023-05-23T00:02:01.494Z,13.12
2023-05-23T00:12:06.448Z,13.12
2023-05-23T00:22:10.523Z,13.15
2023-05-23T00:32:28.582Z,13.17
2023-05-23T00:42:32.004Z,13.03
2023-05-23T00:52:36.154Z,12.82
2023-05-23T01:02:41.067Z,12.62
2023-05-23T01:12:46.448Z,12.10
2023-05-23T01:23:00.335Z,11.42
2023-05-23T01:33:05.211Z,10.99
2023-05-23T01:43:09.131Z,10.51
2023-05-23T01:53:13.786Z,10.07
2023-05-23T02:03:18.862Z,9.69
2023-05-23T02:13:23.121Z,9.49
2023-05-23T02:23:26.961Z,9.36
2023-05-23T02:33:31.077Z,9.19
2023-05-23T02:43:34.922Z,9.09
2023-05-23T02:53:39.185Z,9.02
2023-05-23T03:03:43.172Z,9.04
2023-05-23T03:13:47.028Z,9.32
2023-05-23T03:23:50.745Z,9.57
2023-05-23T03:33:54.431Z,11.04
2023-05-23T03:43:58.173Z,13.09
2023-05-23T03:54:01.958Z,14.86
2023-05-23T04:04:05.873Z,16.51
2023-05-23T04:14:10.622Z,18.26
2023-05-23T04:24:14.726Z,19.68
2023-05-23T04:34:21.730Z,20.35
2023-05-23T04:54:29.250Z,20.49
2023-05-23T05:04:36.685Z,20.25
2023-05-23T05:14:40.974Z,20.18
2023-05-23T05:24:44.522Z,20.25
2023-05-23T05:34:49.575Z,20.44
2023-05-23T05:44:53.767Z,20.39
2023-05-23T05:54:57.163Z,20.78
2023-05-23T06:05:00.778Z,20.72
2023-05-23T06:15:03.568Z,21.08
2023-05-23T06:25:08.769Z,21.61
2023-05-23T06:35:12.340Z,21.81
2023-05-23T06:45:27.255Z,22.20
2023-05-23T06:55:33.368Z,22.58
2023-05-23T07:05:40.936Z,22.20
2023-05-23T07:15:45.541Z,22.19
2023-05-23T07:26:01.007Z,22.49
2023-05-23T07:36:06.550Z,22.40
2023-05-23T07:46:10.509Z,22.33
2023-05-23T07:56:14.311Z,22.38
2023-05-23T08:06:21.669Z,22.32
2023-05-23T08:16:24.595Z,22.45
2023-05-23T08:26:34.218Z,22.28
2023-05-23T08:36:39.406Z,22.65
2023-05-23T08:46:44.454Z,23.03
2023-05-23T08:56:51.528Z,23.14
2023-05-23T09:06:55.555Z,23.13
2023-05-23T09:17:03.866Z,23.24
2023-05-23T09:27:08.732Z,23.09
2023-05-23T09:37:17.836Z,23.42
2023-05-23T09:47:21.630Z,24.05
2023-05-23T09:57:27.113Z,24.17
2023-05-23T10:07:31.174Z,23.80
2023-05-23T10:27:54.190Z,24.00
2023-05-23T10:38:01.565Z,24.16
2023-05-23T10:48:03.783Z,24.36
2023-05-23T10:58:10.176Z,24.63
2023-05-23T11:08:15.672Z,24.29
2023-05-23T11:18:22.118Z,24.33
2023-05-23T11:28:26.160Z,24.31
2023-05-23T11:38:31.010Z,24.44
2023-05-23T11:48:34.670Z,24.45
2023-05-23T11:58:39.696Z,24.55
2023-05-23T12:08:43.553Z,24.75
2023-05-23T12:18:49.621Z,25.00
2023-05-23T12:28:53.233Z,25.26
2023-05-23T12:39:03.861Z,25.27
2023-05-23T12:49:08.296Z,25.19
2023-05-23T12:59:12.310Z,25.00
2023-05-23T13:09:16.463Z,24.57
2023-05-23T13:19:20.137Z,24.41
2023-05-23T13:29:24.163Z,24.31
2023-05-23T13:39:28.212Z,24.22
2023-05-23T13:49:32.078Z,24.17
2023-05-23T13:59:36.313Z,24.09
2023-05-23T14:09:40.213Z,23.95
2023-05-23T14:19:48.432Z,23.72
2023-05-23T14:29:52.864Z,23.28
2023-05-23T14:39:55.876Z,22.80
2023-05-23T15:00:03.597Z,22.41
2023-05-23T15:10:08.182Z,22.67
2023-05-23T15:20:12.786Z,22.69
2023-05-23T15:30:20.244Z,22.84
2023-05-23T15:40:23.426Z,22.53
2023-05-23T15:50:31.325Z,21.96
2023-05-23T16:00:35.214Z,21.32
2023-05-23T16:10:38.857Z,20.91
2023-05-23T16:20:42.531Z,20.63
2023-05-23T16:40:49.904Z,20.36
2023-05-23T16:50:59.970Z,20.20
2023-05-23T17:01:03.949Z,20.06
2023-05-23T17:11:08.029Z,19.98
2023-05-23T17:21:14.596Z,19.83
2023-05-23T17:31:18.657Z,19.70
2023-05-23T17:41:22.620Z,19.49
2023-05-23T17:51:31.353Z,19.35
2023-05-23T18:01:35.868Z,19.18
2023-05-23T18:21:43.114Z,18.96
2023-05-23T18:31:47.243Z,18.85
2023-05-23T18:41:50.897Z,18.73
2023-05-23T18:51:54.805Z,18.63
2023-05-23T19:01:58.998Z,18.52
2023-05-23T19:12:03.076Z,18.32
2023-05-23T19:22:07.136Z,18.05
2023-05-23T19:32:15.307Z,17.84
2023-05-23T19:42:23.726Z,17.74
2023-05-23T19:52:27.363Z,17.65
2023-05-23T20:02:31.141Z,17.52
2023-05-23T20:12:35.344Z,17.40
2023-05-23T20:22:38.508Z,17.43
2023-05-23T20:32:44.993Z,17.50
2023-05-23T20:42:49.353Z,17.47
2023-05-23T20:52:54.435Z,17.44
2023-05-23T21:02:58.149Z,17.47
2023-05-23T21:13:02.270Z,17.50
2023-05-23T21:23:05.937Z,17.50
2023-05-23T21:33:09.680Z,17.42
2023-05-23T21:43:14.448Z,17.31
2023-05-23T21:53:18.147Z,17.31
2023-05-23T22:03:21.841Z,17.28
2023-05-23T22:13:27.980Z,17.21
2023-05-23T22:23:31.495Z,17.09
2023-05-23T22:33:34.894Z,16.91
2023-05-23T22:43:38.429Z,16.91
2023-05-23T22:53:42.752Z,16.92
2023-05-23T23:04:00.808Z,16.86
2023-05-23T23:14:03.952Z,16.73
2023-05-23T23:24:07.921Z,16.61
2023-05-23T23:34:11.515Z,16.50
2023-05-23T23:44:15.435Z,16.45
2023-05-23T23:54:21.706Z,16.37
